createdAt,value
2022-08-08T00:00:55.557Z,2.60
2022-08-08T00:01:52.616Z,2.65
2022-08-08T00:03:31.590Z,2.45
2022-08-08T00:05:00.661Z,2.50
2022-08-08T00:06:28.451Z,2.65
2022-08-08T00:08:03.642Z,2.20
2022-08-08T00:09:35.930Z,2.67
2022-08-08T00:10:56.026Z,2.58
2022-08-08T00:12:09.403Z,2.92
2022-08-08T00:14:17.271Z,2.92
2022-08-08T00:15:00.611Z,2.70
2022-08-08T00:16:11.045Z,2.65
2022-08-08T00:17:47.974Z,2.30
2022-08-08T00:19:17.758Z,3.03
2022-08-08T00:20:29.711Z,2.65
2022-08-08T00:21:39.614Z,2.95
2022-08-08T00:22:50.208Z,2.47
2022-08-08T00:23:57.726Z,2.90
2022-08-08T00:25:12.059Z,2.28
2022-08-08T00:26:29.539Z,2.85
2022-08-08T00:27:36.923Z,2.80
2022-08-08T00:28:44.319Z,2.70
2022-08-08T00:29:49.777Z,2.78
2022-08-08T00:31:00.629Z,2.65
2022-08-08T00:32:42.634Z,2.47
2022-08-08T00:34:18.738Z,2.70
2022-08-08T00:35:48.780Z,2.80
2022-08-08T00:37:03.513Z,3.05
2022-08-08T00:38:16.717Z,2.72
2022-08-08T00:41:11.863Z,2.58
2022-08-08T00:41:54.568Z,3.15
2022-08-08T00:42:50.184Z,3.20
2022-08-08T00:44:10.702Z,4.18
2022-08-08T00:45:35.402Z,2.63
2022-08-08T00:46:59.190Z,2.70
2022-08-08T00:48:30.327Z,2.53
2022-08-08T00:49:59.215Z,3.35
2022-08-08T00:51:18.301Z,2.78
2022-08-08T00:52:45.175Z,2.75
2022-08-08T00:54:15.718Z,3.13
2022-08-08T00:55:54.158Z,2.72
2022-08-08T00:57:23.562Z,2.28
2022-08-08T00:59:15.387Z,3.10
2022-08-08T01:00:27.385Z,3.28
2022-08-08T01:01:48.897Z,3.05
2022-08-08T01:04:02.739Z,3.10
2022-08-08T01:05:42.398Z,2.67
2022-08-08T01:07:23.707Z,3.22
2022-08-08T01:08:52.015Z,2.88
2022-08-08T01:10:14.574Z,2.70
2022-08-08T01:11:52.113Z,3.50
2022-08-08T01:13:52.595Z,3.67
2022-08-08T01:15:44.251Z,3.15
2022-08-08T01:17:17.815Z,3.00
2022-08-08T01:18:53.791Z,2.88
2022-08-08T01:20:21.773Z,3.70
2022-08-08T01:22:13.649Z,3.10
2022-08-08T01:24:05.626Z,3.05
2022-08-08T01:25:40.082Z,3.00
2022-08-08T01:27:33.028Z,3.25
2022-08-08T01:28:59.297Z,2.97
2022-08-08T01:30:10.962Z,2.83
2022-08-08T01:32:05.541Z,2.92
2022-08-08T01:32:58.081Z,2.75
2022-08-08T01:34:29.291Z,3.15
2022-08-08T01:35:55.806Z,3.00
2022-08-08T01:37:17.475Z,2.80
2022-08-08T01:38:46.010Z,3.30
2022-08-08T01:40:14.743Z,3.47
2022-08-08T01:41:43.960Z,3.42
2022-08-08T01:42:58.452Z,3.33
2022-08-08T01:44:10.874Z,3.47
2022-08-08T01:45:54.420Z,3.70
2022-08-08T01:48:16.766Z,3.08
2022-08-08T01:49:22.868Z,3.22
2022-08-08T01:50:44.288Z,3.33
2022-08-08T01:54:01.127Z,2.58
2022-08-08T01:55:17.986Z,3.20
2022-08-08T01:56:28.325Z,3.47
2022-08-08T01:57:33.834Z,3.20
2022-08-08T01:59:07.832Z,2.85
2022-08-08T02:00:20.207Z,3.20
2022-08-08T02:02:05.168Z,3.55
2022-08-08T02:03:56.090Z,3.05
2022-08-08T02:05:08.682Z,2.90
2022-08-08T02:06:32.747Z,3.10
2022-08-08T02:08:06.891Z,2.90
2022-08-08T02:10:11.546Z,2.92
2022-08-08T02:12:00.117Z,3.00
2022-08-08T02:13:54.100Z,2.80
2022-08-08T02:15:04.119Z,2.67
2022-08-08T02:16:56.237Z,3.58
2022-08-08T02:20:07.967Z,3.30
2022-08-08T02:21:34.672Z,2.83
2022-08-08T02:22:55.187Z,2.75
2022-08-08T02:24:17.666Z,2.58
2022-08-08T02:25:46.872Z,2.72
2022-08-08T02:27:01.096Z,3.38
2022-08-08T02:28:10.877Z,2.78
2022-08-08T02:29:46.843Z,2.75
2022-08-08T02:31:04.830Z,3.50
2022-08-08T02:33:05.627Z,3.10
2022-08-08T02:34:09.798Z,3.40
2022-08-08T02:36:12.579Z,4.07
2022-08-08T02:37:53.444Z,2.72
2022-08-08T02:39:40.718Z,3.10
2022-08-08T02:40:58.640Z,2.97
2022-08-08T02:42:41.501Z,3.05
2022-08-08T02:44:38.279Z,3.13
2022-08-08T02:46:36.523Z,2.97
2022-08-08T02:48:13.645Z,3.10
2022-08-08T02:49:48.207Z,2.63
2022-08-08T02:51:46.416Z,3.33
2022-08-08T02:53:24.212Z,3.00
2022-08-08T02:54:53.846Z,3.08
2022-08-08T02:57:44.384Z,3.15
2022-08-08T02:59:57.955Z,2.75
2022-08-08T03:01:19.657Z,4.53
2022-08-08T03:02:40.730Z,3.50
2022-08-08T03:05:03.694Z,3.40
2022-08-08T03:06:04.783Z,2.97
2022-08-08T03:07:57.981Z,2.90
2022-08-08T03:09:33.125Z,3.10
2022-08-08T03:12:01.674Z,3.10
2022-08-08T03:13:34.143Z,3.28
2022-08-08T03:16:01.307Z,2.83
2022-08-08T03:16:48.946Z,2.58
2022-08-08T03:18:06.389Z,3.70
2022-08-08T03:19:51.589Z,3.58
2022-08-08T03:20:56.202Z,3.30
2022-08-08T03:22:01.624Z,3.85
2022-08-08T03:23:05.403Z,3.55
2022-08-08T03:24:09.047Z,3.50
2022-08-08T03:25:18.793Z,3.05
2022-08-08T03:26:41.973Z,3.22
2022-08-08T03:27:59.274Z,4.03
2022-08-08T03:29:16.950Z,4.20
2022-08-08T03:30:24.958Z,4.10
2022-08-08T03:32:06.522Z,3.50
2022-08-08T03:33:55.079Z,4.80
2022-08-08T03:34:44.703Z,3.17
2022-08-08T03:35:50.503Z,4.18
2022-08-08T03:36:55.229Z,3.72
2022-08-08T03:38:53.538Z,3.90
2022-08-08T03:39:24.414Z,3.78
2022-08-08T03:40:29.399Z,3.83
2022-08-08T03:42:27.321Z,4.35
2022-08-08T03:42:58.798Z,4.45
2022-08-08T03:44:20.446Z,4.15
2022-08-08T03:46:05.233Z,4.07
2022-08-08T03:46:52.326Z,5.43
2022-08-08T03:48:02.989Z,5.15
2022-08-08T03:49:58.574Z,4.03
2022-08-08T03:50:48.594Z,4.55
2022-08-08T03:51:55.418Z,4.28
2022-08-08T03:53:12.583Z,4.40
2022-08-08T03:54:51.851Z,4.60
2022-08-08T03:55:56.023Z,4.00
2022-08-08T03:58:31.445Z,3.60
2022-08-08T03:58:34.521Z,3.05
2022-08-08T04:00:07.335Z,3.80
2022-08-08T04:01:26.036Z,3.53
2022-08-08T04:02:36.825Z,4.10
2022-08-08T04:03:58.256Z,3.85
2022-08-08T04:05:10.135Z,4.20
2022-08-08T04:06:15.718Z,3.53
2022-08-08T04:07:19.105Z,4.15
2022-08-08T04:08:33.136Z,3.50
2022-08-08T04:10:05.088Z,4.72
2022-08-08T04:11:11.497Z,3.85
2022-08-08T04:12:21.177Z,3.25
2022-08-08T04:13:25.717Z,4.13
2022-08-08T04:14:36.206Z,3.75
2022-08-08T04:15:40.114Z,3.35
2022-08-08T04:17:02.632Z,4.20
2022-08-08T04:18:06.941Z,4.57
2022-08-08T04:19:20.844Z,3.40
2022-08-08T04:20:28.826Z,4.95
2022-08-08T04:21:38.023Z,4.57
2022-08-08T04:22:43.610Z,3.10
2022-08-08T04:24:05.216Z,4.45
2022-08-08T04:25:13.134Z,4.85
2022-08-08T04:26:18.181Z,4.50
2022-08-08T04:28:02.376Z,3.85
2022-08-08T04:28:44.771Z,3.78
2022-08-08T04:29:55.396Z,4.22
2022-08-08T04:31:04.581Z,4.32
2022-08-08T04:32:10.673Z,4.07
2022-08-08T04:33:15.842Z,3.80
2022-08-08T04:34:18.571Z,3.97
2022-08-08T04:35:23.208Z,3.67
2022-08-08T04:36:27.141Z,4.43
2022-08-08T04:37:32.283Z,5.00
2022-08-08T04:38:38.738Z,4.22
2022-08-08T04:40:03.216Z,3.67
2022-08-08T04:41:10.621Z,4.53
2022-08-08T04:42:20.705Z,4.75
2022-08-08T04:43:31.927Z,5.03
2022-08-08T04:44:54.893Z,4.63
2022-08-08T04:45:57.319Z,4.85
2022-08-08T04:47:00.067Z,5.13
2022-08-08T04:48:03.621Z,4.53
2022-08-08T04:49:11.273Z,4.30
2022-08-08T04:50:24.300Z,4.22
2022-08-08T04:51:54.781Z,3.88
2022-08-08T04:52:58.932Z,3.70
2022-08-08T04:54:40.304Z,5.13
2022-08-08T04:55:47.490Z,3.75
2022-08-08T04:56:54.494Z,3.67
2022-08-08T04:57:59.289Z,3.97
2022-08-08T04:59:02.216Z,3.97
2022-08-08T05:00:06.320Z,4.35
2022-08-08T05:01:11.335Z,4.53
2022-08-08T05:02:20.234Z,3.83
2022-08-08T05:04:08.224Z,3.60
2022-08-08T05:04:48.439Z,4.82
2022-08-08T05:05:53.446Z,4.53
2022-08-08T05:06:57.453Z,4.97
2022-08-08T05:07:59.984Z,3.80
2022-08-08T05:09:06.109Z,4.30
2022-08-08T05:10:12.848Z,4.50
2022-08-08T05:11:22.763Z,4.70
2022-08-08T05:12:29.523Z,5.35
2022-08-08T05:13:32.059Z,5.47
2022-08-08T05:14:35.752Z,4.80
2022-08-08T05:16:55.239Z,4.68
2022-08-08T05:17:09.079Z,4.60
2022-08-08T05:18:13.188Z,4.25
2022-08-08T05:20:10.985Z,3.65
2022-08-08T05:20:48.355Z,4.38
2022-08-08T05:21:59.935Z,4.80
2022-08-08T05:23:04.773Z,4.35
2022-08-08T05:24:10.648Z,3.55
2022-08-08T05:25:13.979Z,3.55
2022-08-08T05:26:19.925Z,3.63
2022-08-08T05:27:23.043Z,3.38
2022-08-08T05:28:52.410Z,4.05
2022-08-08T05:29:50.206Z,3.30
2022-08-08T05:30:54.459Z,3.33
2022-08-08T05:32:06.122Z,3.13
2022-08-08T05:33:10.045Z,3.40
2022-08-08T05:34:49.206Z,3.35
2022-08-08T05:37:00.104Z,3.50
2022-08-08T05:38:29.344Z,3.40
2022-08-08T05:39:34.952Z,3.22
2022-08-08T05:40:45.539Z,2.85
2022-08-08T05:41:55.204Z,3.03
2022-08-08T05:43:38.309Z,3.33
2022-08-08T05:44:37.307Z,3.00
2022-08-08T05:45:53.137Z,3.38
2022-08-08T05:47:03.026Z,4.00
2022-08-08T05:48:08.784Z,3.67
2022-08-08T05:49:13.452Z,3.15
2022-08-08T05:50:19.129Z,3.55
2022-08-08T05:51:22.318Z,3.53
2022-08-08T05:52:35.472Z,3.33
2022-08-08T05:54:26.148Z,3.13
2022-08-08T05:55:09.675Z,3.60
2022-08-08T05:56:15.437Z,3.67
2022-08-08T05:58:04.065Z,3.08
2022-08-08T05:58:56.905Z,3.50
2022-08-08T06:00:23.408Z,3.40
2022-08-08T06:01:55.979Z,3.97
2022-08-08T06:03:23.704Z,3.70
2022-08-08T06:04:32.909Z,3.80
2022-08-08T06:05:48.617Z,3.70
2022-08-08T06:07:00.239Z,3.25
2022-08-08T06:08:09.602Z,2.83
2022-08-08T06:09:59.176Z,2.50
2022-08-08T06:10:41.806Z,2.78
2022-08-08T06:11:46.216Z,3.03
2022-08-08T06:12:51.342Z,2.50
2022-08-08T06:13:54.205Z,3.03
2022-08-08T06:15:02.820Z,2.70
2022-08-08T06:16:13.876Z,3.85
2022-08-08T06:17:51.587Z,2.47
2022-08-08T06:19:04.254Z,2.88
2022-08-08T06:20:12.953Z,2.65
2022-08-08T06:21:32.696Z,2.17
2022-08-08T06:22:43.199Z,2.42
2022-08-08T06:24:02.279Z,2.58
2022-08-08T06:25:07.129Z,2.35
2022-08-08T06:26:44.626Z,2.30
2022-08-08T06:27:39.459Z,2.30
2022-08-08T06:28:54.080Z,2.65
2022-08-08T06:30:05.128Z,2.30
2022-08-08T06:31:19.761Z,2.42
2022-08-08T06:32:30.798Z,2.40
2022-08-08T06:34:25.545Z,2.88
2022-08-08T06:36:06.925Z,2.10
2022-08-08T06:36:57.224Z,2.22
2022-08-08T06:38:09.331Z,2.45
2022-08-08T06:39:21.877Z,2.28
2022-08-08T06:40:28.296Z,2.10
2022-08-08T06:41:34.558Z,2.15
2022-08-08T06:42:39.976Z,2.50
2022-08-08T06:43:47.707Z,2.33
2022-08-08T06:45:06.143Z,2.00
2022-08-08T06:46:12.795Z,2.28
2022-08-08T06:47:22.134Z,1.85
2022-08-08T06:48:26.708Z,1.90
2022-08-08T06:49:56.498Z,1.90
2022-08-08T06:50:55.613Z,2.00
2022-08-08T06:51:59.811Z,1.80
2022-08-08T06:53:09.733Z,1.73
2022-08-08T06:54:16.316Z,1.70
2022-08-08T06:55:23.412Z,1.67
2022-08-08T06:56:26.370Z,1.70
2022-08-08T06:57:54.850Z,1.20
2022-08-08T06:58:51.362Z,1.88
2022-08-08T07:00:09.931Z,1.40
2022-08-08T07:02:18.171Z,2.08
2022-08-08T07:02:51.637Z,1.33
2022-08-08T07:04:37.757Z,1.70
2022-08-08T07:05:40.412Z,1.50
2022-08-08T07:06:50.562Z,1.50
2022-08-08T07:08:10.597Z,1.45
2022-08-08T07:09:20.860Z,0.90
2022-08-08T07:10:25.936Z,1.45
2022-08-08T07:11:50.611Z,1.50
2022-08-08T07:13:06.348Z,1.55
2022-08-08T07:14:19.314Z,1.35
2022-08-08T07:15:41.161Z,1.73
2022-08-08T07:17:09.282Z,1.30
2022-08-08T07:18:55.887Z,1.25
2022-08-08T07:20:11.152Z,1.00
2022-08-08T07:21:20.411Z,1.20
2022-08-08T07:22:41.995Z,0.90
2022-08-08T07:23:57.403Z,1.13
2022-08-08T07:25:09.727Z,0.80
2022-08-08T07:26:17.708Z,1.30
2022-08-08T07:27:35.491Z,1.20
2022-08-08T07:28:49.587Z,1.35
2022-08-08T07:29:59.659Z,1.50
2022-08-08T07:31:07.350Z,1.02
2022-08-08T07:32:15.782Z,1.02
2022-08-08T07:33:24.205Z,0.93
2022-08-08T07:34:31.983Z,1.10
2022-08-08T07:35:39.339Z,1.30
2022-08-08T07:36:48.156Z,1.08
2022-08-08T07:38:09.997Z,0.90
2022-08-08T07:39:29.598Z,1.30
2022-08-08T07:40:49.060Z,1.38
2022-08-08T07:42:04.198Z,1.35
2022-08-08T07:43:10.121Z,1.30
2022-08-08T07:44:37.673Z,1.60
2022-08-08T07:46:05.487Z,1.17
2022-08-08T07:47:10.105Z,1.23
2022-08-08T07:48:13.223Z,1.25
2022-08-08T07:49:15.784Z,1.00
2022-08-08T07:50:22.105Z,1.33
2022-08-08T07:51:44.896Z,1.10
2022-08-08T07:52:59.540Z,1.10
2022-08-08T07:54:15.899Z,1.08
2022-08-08T07:55:36.629Z,1.13
2022-08-08T07:58:05.427Z,1.20
2022-08-08T07:59:16.454Z,1.05
2022-08-08T08:00:30.089Z,1.23
2022-08-08T08:02:35.627Z,1.38
2022-08-08T08:03:31.023Z,1.92
2022-08-08T08:04:49.079Z,1.38
2022-08-08T08:05:55.998Z,1.25
2022-08-08T08:07:04.643Z,0.93
2022-08-08T08:08:20.543Z,1.75
2022-08-08T08:09:28.565Z,1.33
2022-08-08T08:10:36.108Z,1.33
2022-08-08T08:11:51.427Z,1.85
2022-08-08T08:13:25.817Z,1.50
2022-08-08T08:15:04.413Z,1.20
2022-08-08T08:16:13.852Z,1.08
2022-08-08T08:17:24.321Z,1.00
2022-08-08T08:18:52.106Z,1.23
2022-08-08T08:20:04.793Z,1.50
2022-08-08T08:21:16.584Z,1.30
2022-08-08T08:22:31.296Z,1.15
2022-08-08T08:23:40.655Z,1.08
2022-08-08T08:24:46.424Z,1.00
2022-08-08T08:25:55.237Z,1.27
2022-08-08T08:26:59.800Z,1.58
2022-08-08T08:28:05.376Z,1.10
2022-08-08T08:29:16.583Z,1.15
2022-08-08T08:30:21.813Z,1.20
2022-08-08T08:31:28.986Z,0.90
2022-08-08T08:32:51.171Z,1.00
2022-08-08T08:33:56.678Z,1.13
2022-08-08T08:35:00.833Z,1.40
2022-08-08T08:36:17.546Z,0.85
2022-08-08T08:37:27.104Z,1.13
2022-08-08T08:38:32.674Z,1.15
2022-08-08T08:40:01.505Z,1.40
2022-08-08T08:41:17.061Z,1.15
2022-08-08T08:42:29.008Z,1.10
2022-08-08T08:43:42.370Z,1.05
2022-08-08T08:44:49.444Z,1.13
2022-08-08T08:45:57.111Z,1.50
2022-08-08T08:47:02.805Z,1.35
2022-08-08T08:48:09.778Z,1.00
2022-08-08T08:49:25.638Z,1.10
2022-08-08T08:50:34.696Z,1.00
2022-08-08T08:51:51.150Z,1.27
2022-08-08T08:52:59.814Z,1.42
2022-08-08T08:54:03.231Z,0.90
2022-08-08T08:55:13.722Z,1.00
2022-08-08T08:56:25.109Z,0.80
2022-08-08T08:57:38.041Z,0.95
2022-08-08T08:58:46.827Z,0.85
2022-08-08T09:00:05.697Z,1.23
2022-08-08T09:01:18.831Z,0.90
2022-08-08T09:02:26.320Z,1.05
2022-08-08T09:03:46.937Z,0.80
2022-08-08T09:04:59.293Z,0.95
2022-08-08T09:06:02.761Z,0.88
2022-08-08T09:07:39.505Z,0.77
2022-08-08T09:08:58.181Z,1.30
2022-08-08T09:10:01.299Z,0.73
2022-08-08T09:11:15.534Z,1.02
2022-08-08T09:12:23.139Z,0.98
2022-08-08T09:13:28.252Z,1.15
2022-08-08T09:14:32.459Z,0.73
2022-08-08T09:15:40.975Z,1.00
2022-08-08T09:16:46.244Z,0.90
2022-08-08T09:17:55.225Z,1.23
2022-08-08T09:18:59.487Z,0.70
2022-08-08T09:21:59.245Z,0.85
2022-08-08T09:22:00.318Z,0.70
2022-08-08T09:22:49.823Z,0.90
2022-08-08T09:23:54.877Z,0.65
2022-08-08T09:24:58.987Z,0.80
2022-08-08T09:26:09.290Z,1.02
2022-08-08T09:27:20.788Z,0.60
2022-08-08T09:28:38.476Z,0.63
2022-08-08T09:30:11.246Z,0.70
2022-08-08T09:31:42.337Z,0.90
2022-08-08T09:33:12.663Z,0.70
2022-08-08T09:34:32.799Z,0.90
2022-08-08T09:35:48.908Z,0.85
2022-08-08T09:37:57.906Z,1.20
2022-08-08T09:38:53.830Z,1.10
2022-08-08T09:40:10.802Z,1.20
2022-08-08T09:41:17.628Z,1.10
2022-08-08T09:42:25.715Z,1.38
2022-08-08T09:44:05.555Z,1.02
2022-08-08T09:44:55.835Z,1.23
2022-08-08T09:46:03.904Z,1.35
2022-08-08T09:48:03.899Z,1.20
2022-08-08T09:48:36.626Z,1.13
2022-08-08T09:49:49.813Z,0.93
2022-08-08T09:52:57.633Z,0.95
2022-08-08T09:54:06.822Z,1.92
2022-08-08T09:55:17.420Z,1.00
2022-08-08T09:56:44.414Z,1.25
2022-08-08T09:57:56.967Z,0.98
2022-08-08T09:59:15.299Z,1.30
2022-08-08T10:00:37.660Z,1.10
2022-08-08T10:01:59.490Z,0.98
2022-08-08T10:03:06.028Z,1.17
2022-08-08T10:04:15.244Z,0.93
2022-08-08T10:05:39.797Z,0.77
2022-08-08T10:06:53.078Z,0.90
2022-08-08T10:08:00.531Z,0.73
2022-08-08T10:09:03.622Z,0.80
2022-08-08T10:10:07.091Z,0.80
2022-08-08T10:12:22.999Z,0.77
2022-08-08T10:12:53.042Z,0.70
2022-08-08T10:14:02.978Z,0.88
2022-08-08T10:15:18.735Z,0.95
2022-08-08T10:16:22.307Z,0.90
2022-08-08T10:17:58.099Z,1.02
2022-08-08T10:19:04.263Z,1.13
2022-08-08T10:20:07.190Z,1.00
2022-08-08T10:21:24.788Z,0.90
2022-08-08T10:22:32.017Z,0.98
2022-08-08T10:23:42.278Z,0.63
2022-08-08T10:24:48.011Z,0.85
2022-08-08T10:25:57.161Z,1.00
2022-08-08T10:27:12.983Z,1.58
2022-08-08T10:28:17.303Z,1.05
2022-08-08T10:29:43.844Z,0.50
2022-08-08T10:31:01.694Z,0.65
2022-08-08T10:32:28.199Z,0.47
2022-08-08T10:33:38.534Z,0.73
2022-08-08T10:35:01.369Z,0.90
2022-08-08T10:36:20.565Z,0.85
2022-08-08T10:37:34.563Z,0.60
2022-08-08T10:38:38.068Z,0.60
2022-08-08T10:39:53.696Z,0.88
2022-08-08T10:41:02.321Z,0.95
2022-08-08T10:42:16.359Z,0.60
2022-08-08T10:43:20.042Z,0.75
2022-08-08T10:44:35.409Z,0.95
2022-08-08T10:45:56.800Z,0.90
2022-08-08T10:47:14.396Z,0.80
2022-08-08T10:48:17.261Z,0.70
2022-08-08T10:49:26.780Z,0.60
2022-08-08T10:50:47.215Z,0.80
2022-08-08T10:51:51.090Z,1.05
2022-08-08T10:53:02.645Z,0.82
2022-08-08T10:54:06.947Z,0.63
2022-08-08T10:55:39.498Z,0.57
2022-08-08T10:56:43.122Z,0.90
2022-08-08T10:57:50.754Z,0.90
2022-08-08T10:59:04.585Z,0.55
2022-08-08T11:00:11.800Z,0.60
2022-08-08T11:01:15.752Z,0.70
2022-08-08T11:02:31.365Z,0.80
2022-08-08T11:04:00.752Z,0.70
2022-08-08T11:05:15.125Z,0.80
2022-08-08T11:06:20.804Z,0.65
2022-08-08T11:08:31.218Z,0.60
2022-08-08T11:09:09.983Z,0.70
2022-08-08T11:10:28.575Z,1.05
2022-08-08T11:12:06.439Z,0.70
2022-08-08T11:13:30.061Z,0.70
2022-08-08T11:14:28.030Z,0.55
2022-08-08T11:15:31.249Z,0.63
2022-08-08T11:16:42.358Z,0.40
2022-08-08T11:17:59.966Z,0.80
2022-08-08T11:19:05.013Z,0.93
2022-08-08T11:20:10.947Z,0.65
2022-08-08T11:21:19.768Z,0.82
2022-08-08T11:22:29.687Z,0.80
2022-08-08T11:23:35.025Z,0.63
2022-08-08T11:24:37.813Z,1.17
2022-08-08T11:25:51.657Z,0.90
2022-08-08T11:27:03.055Z,0.98
2022-08-08T11:28:29.033Z,0.82
2022-08-08T11:29:50.778Z,0.70
2022-08-08T11:31:00.418Z,0.80
2022-08-08T11:32:04.271Z,0.50
2022-08-08T11:33:12.423Z,0.90
2022-08-08T11:34:23.024Z,0.77
2022-08-08T11:35:37.746Z,1.10
2022-08-08T11:36:44.830Z,0.50
2022-08-08T11:38:36.837Z,0.70
2022-08-08T11:39:18.021Z,0.77
2022-08-08T11:40:26.785Z,0.63
2022-08-08T11:41:32.390Z,0.93
2022-08-08T11:42:37.011Z,0.85
2022-08-08T11:43:42.229Z,0.88
2022-08-08T11:44:45.916Z,1.10
2022-08-08T11:46:13.487Z,0.90
2022-08-08T11:47:17.120Z,1.27
2022-08-08T11:48:20.895Z,1.00
2022-08-08T11:49:24.978Z,1.17
2022-08-08T11:50:30.669Z,0.75
2022-08-08T11:51:40.179Z,0.90
2022-08-08T11:52:53.454Z,0.88
2022-08-08T11:54:01.205Z,0.80
2022-08-08T11:55:26.555Z,0.90
2022-08-08T11:56:35.662Z,0.75
2022-08-08T11:57:45.253Z,0.90
2022-08-08T11:58:55.700Z,0.90
2022-08-08T12:00:05.797Z,0.80
2022-08-08T12:01:17.235Z,0.85
2022-08-08T12:02:41.637Z,0.70
2022-08-08T12:03:50.181Z,0.70
2022-08-08T12:05:12.488Z,0.98
2022-08-08T12:06:19.489Z,0.65
2022-08-08T12:07:25.511Z,0.88
2022-08-08T12:08:35.771Z,0.75
2022-08-08T12:09:56.901Z,0.80
2022-08-08T12:11:09.716Z,0.75
2022-08-08T12:12:28.842Z,0.80
2022-08-08T12:13:37.715Z,0.82
2022-08-08T12:15:01.308Z,0.77
2022-08-08T12:16:17.961Z,0.80
2022-08-08T12:17:32.340Z,0.80
2022-08-08T12:18:48.426Z,0.60
2022-08-08T12:19:56.909Z,0.80
2022-08-08T12:20:59.951Z,0.63
2022-08-08T12:22:13.287Z,0.93
2022-08-08T12:23:43.058Z,0.80
2022-08-08T12:24:59.643Z,0.80
2022-08-08T12:26:10.143Z,0.70
2022-08-08T12:27:19.751Z,0.70
2022-08-08T12:28:22.638Z,0.80
2022-08-08T12:29:42.456Z,1.30
2022-08-08T12:30:49.912Z,0.82
2022-08-08T12:32:02.922Z,0.60
2022-08-08T12:33:19.646Z,0.60
2022-08-08T12:34:40.279Z,0.80
2022-08-08T12:35:52.460Z,0.90
2022-08-08T12:37:05.263Z,0.70
2022-08-08T12:38:17.793Z,1.05
2022-08-08T12:39:56.172Z,0.80
2022-08-08T12:40:57.008Z,0.70
2022-08-08T12:42:04.739Z,0.57
2022-08-08T12:43:07.702Z,1.00
2022-08-08T12:44:32.241Z,0.82
2022-08-08T12:45:59.275Z,0.73
2022-08-08T12:47:01.210Z,0.90
2022-08-08T12:48:37.594Z,0.80
2022-08-08T12:49:43.592Z,0.80
2022-08-08T12:50:57.266Z,1.05
2022-08-08T12:52:01.296Z,0.73
2022-08-08T12:53:03.507Z,0.60
2022-08-08T12:54:24.059Z,0.77
2022-08-08T12:55:35.700Z,1.00
2022-08-08T12:56:50.021Z,0.60
2022-08-08T12:57:56.571Z,0.55
2022-08-08T12:58:59.961Z,0.60
2022-08-08T13:00:12.164Z,0.50
2022-08-08T13:01:16.901Z,0.60
2022-08-08T13:02:33.516Z,0.50
2022-08-08T13:03:46.130Z,0.60
2022-08-08T13:04:55.917Z,0.50
2022-08-08T13:06:13.887Z,0.45
2022-08-08T13:07:17.475Z,0.70
2022-08-08T13:08:36.530Z,0.85
2022-08-08T13:10:10.818Z,0.82
2022-08-08T13:12:17.962Z,0.60
2022-08-08T13:13:06.069Z,0.73
2022-08-08T13:14:15.430Z,0.70
2022-08-08T13:15:20.226Z,0.73
2022-08-08T13:16:26.029Z,0.40
2022-08-08T13:18:08.815Z,0.75
2022-08-08T13:19:02.592Z,0.60
2022-08-08T13:20:15.399Z,0.50
2022-08-08T13:21:20.341Z,0.52
2022-08-08T13:22:24.652Z,0.40
2022-08-08T13:23:30.730Z,0.45
2022-08-08T13:24:48.415Z,0.55
2022-08-08T13:26:01.607Z,0.50
2022-08-08T13:27:11.839Z,1.10
2022-08-08T13:28:14.649Z,0.50
2022-08-08T13:29:21.154Z,0.60
2022-08-08T13:30:26.661Z,0.50
2022-08-08T13:31:30.598Z,0.40
2022-08-08T13:32:39.493Z,0.55
2022-08-08T13:33:45.174Z,0.90
2022-08-08T13:34:52.817Z,0.60
2022-08-08T13:35:56.690Z,0.40
2022-08-08T13:36:59.019Z,0.75
2022-08-08T13:38:06.362Z,0.65
2022-08-08T13:39:09.858Z,0.70
2022-08-08T13:40:17.405Z,1.00
2022-08-08T13:41:21.804Z,0.90
2022-08-08T13:42:25.388Z,0.70
2022-08-08T13:43:27.935Z,0.70
2022-08-08T13:44:30.541Z,0.75
2022-08-08T13:45:33.520Z,0.70
2022-08-08T13:46:37.799Z,0.70
2022-08-08T13:47:40.547Z,0.70
2022-08-08T13:49:11.368Z,0.90
2022-08-08T13:50:38.765Z,0.80
2022-08-08T13:51:58.957Z,1.05
2022-08-08T13:54:31.192Z,0.50
2022-08-08T13:55:36.676Z,0.80
2022-08-08T13:56:53.645Z,0.85
2022-08-08T13:58:07.982Z,0.80
2022-08-08T13:59:32.585Z,0.90
2022-08-08T14:00:42.407Z,0.60
2022-08-08T14:01:57.954Z,0.65
2022-08-08T14:03:20.087Z,0.70
2022-08-08T14:04:26.069Z,0.90
2022-08-08T14:05:34.087Z,0.80
2022-08-08T14:06:44.632Z,0.60
2022-08-08T14:07:49.892Z,0.68
2022-08-08T14:08:56.751Z,0.80
2022-08-08T14:10:05.254Z,0.88
2022-08-08T14:11:15.796Z,0.80
2022-08-08T14:12:19.577Z,0.98
2022-08-08T14:13:33.654Z,1.00
2022-08-08T14:14:44.967Z,1.08
2022-08-08T14:15:50.551Z,0.82
2022-08-08T14:16:53.071Z,0.68
2022-08-08T14:18:34.912Z,1.23
2022-08-08T14:19:56.955Z,0.70
2022-08-08T14:21:02.589Z,0.60
2022-08-08T14:22:36.859Z,1.08
2022-08-08T14:24:04.179Z,0.50
2022-08-08T14:25:15.359Z,0.60
2022-08-08T14:26:28.204Z,0.90
2022-08-08T14:28:37.615Z,0.55
2022-08-08T14:29:52.837Z,0.60
2022-08-08T14:31:07.587Z,0.70
2022-08-08T14:32:16.068Z,0.50
2022-08-08T14:33:36.534Z,0.50
2022-08-08T14:34:39.058Z,0.60
2022-08-08T14:35:44.088Z,0.40
2022-08-08T14:36:54.482Z,0.65
2022-08-08T14:38:05.983Z,0.43
2022-08-08T14:39:18.972Z,0.73
2022-08-08T14:40:25.444Z,0.50
2022-08-08T14:41:53.233Z,0.45
2022-08-08T14:42:55.462Z,0.93
2022-08-08T14:44:11.957Z,0.40
2022-08-08T14:45:18.384Z,0.60
2022-08-08T14:46:32.568Z,0.60
2022-08-08T14:48:07.519Z,0.47
2022-08-08T14:49:20.319Z,0.40
2022-08-08T14:50:38.070Z,0.45
2022-08-08T14:51:51.822Z,0.68
2022-08-08T14:52:57.021Z,0.40
2022-08-08T14:54:03.201Z,0.70
2022-08-08T14:55:07.221Z,0.43
2022-08-08T14:56:11.298Z,0.38
2022-08-08T14:57:16.437Z,0.50
2022-08-08T14:58:20.176Z,0.30
2022-08-08T14:59:44.641Z,0.63
2022-08-08T15:00:47.905Z,0.50
2022-08-08T15:01:51.644Z,0.30
2022-08-08T15:03:14.465Z,0.40
2022-08-08T15:04:17.644Z,0.32
2022-08-08T15:05:23.044Z,0.63
2022-08-08T15:06:45.407Z,0.40
2022-08-08T15:07:53.706Z,0.57
2022-08-08T15:09:03.214Z,0.60
2022-08-08T15:10:09.396Z,0.40
2022-08-08T15:11:18.920Z,0.40
2022-08-08T15:13:39.748Z,0.60
2022-08-08T15:14:43.673Z,0.50
2022-08-08T15:16:03.153Z,0.80
2022-08-08T15:17:05.985Z,0.60
2022-08-08T15:18:10.843Z,0.63
2022-08-08T15:19:14.930Z,0.47
2022-08-08T15:20:18.546Z,0.85
2022-08-08T15:21:21.174Z,0.80
2022-08-08T15:22:24.051Z,0.85
2022-08-08T15:23:33.192Z,0.85
2022-08-08T15:24:37.060Z,0.52
2022-08-08T15:25:39.324Z,0.60
2022-08-08T15:26:44.045Z,0.75
2022-08-08T15:28:03.427Z,0.70
2022-08-08T15:29:17.192Z,0.75
2022-08-08T15:30:19.479Z,0.80
2022-08-08T15:31:56.250Z,0.65
2022-08-08T15:32:45.069Z,0.60
2022-08-08T15:33:59.407Z,0.55
2022-08-08T15:35:04.883Z,0.75
2022-08-08T15:36:08.622Z,0.80
2022-08-08T15:37:13.086Z,0.88
2022-08-08T15:38:17.276Z,0.70
2022-08-08T15:39:21.544Z,0.60
2022-08-08T15:40:28.315Z,0.77
2022-08-08T15:41:43.610Z,0.90
2022-08-08T15:42:47.507Z,0.90
2022-08-08T15:44:01.244Z,0.90
2022-08-08T15:45:04.110Z,0.60
2022-08-08T15:46:06.487Z,1.15
2022-08-08T15:47:15.674Z,0.80
2022-08-08T15:48:21.107Z,0.80
2022-08-08T15:49:27.722Z,0.80
2022-08-08T15:50:52.200Z,0.98
2022-08-08T15:51:54.977Z,1.00
2022-08-08T15:52:58.674Z,0.80
2022-08-08T15:54:00.928Z,0.68
2022-08-08T15:55:03.394Z,0.88
2022-08-08T15:56:08.653Z,0.88
2022-08-08T15:57:16.075Z,0.98
2022-08-08T15:58:18.276Z,0.90
2022-08-08T16:00:18.024Z,0.75
2022-08-08T16:00:52.939Z,0.60
2022-08-08T16:02:00.699Z,1.10
2022-08-08T16:03:03.453Z,0.80
2022-08-08T16:04:05.824Z,1.02
2022-08-08T16:05:16.083Z,0.70
2022-08-08T16:06:28.381Z,0.70
2022-08-08T16:07:39.238Z,0.80
2022-08-08T16:09:02.328Z,0.80
2022-08-08T16:13:10.987Z,0.80
2022-08-08T16:13:21.465Z,0.50
2022-08-08T16:13:28.124Z,0.98
2022-08-08T16:14:32.790Z,0.47
2022-08-08T16:15:35.841Z,0.60
2022-08-08T16:17:07.247Z,0.63
2022-08-08T16:18:11.963Z,0.70
2022-08-08T16:19:16.113Z,0.75
2022-08-08T16:20:29.383Z,0.60
2022-08-08T16:21:33.368Z,0.80
2022-08-08T16:22:36.961Z,0.93
2022-08-08T16:23:39.338Z,0.68
2022-08-08T16:24:44.204Z,0.80
2022-08-08T16:25:54.589Z,0.90
2022-08-08T16:27:01.405Z,1.23
2022-08-08T16:28:04.578Z,0.73
2022-08-08T16:29:37.739Z,0.73
2022-08-08T16:30:49.109Z,1.00
2022-08-08T16:31:51.853Z,0.70
2022-08-08T16:32:54.219Z,0.90
2022-08-08T16:33:59.305Z,0.88
2022-08-08T16:35:02.057Z,0.85
2022-08-08T16:36:05.269Z,0.95
2022-08-08T16:37:11.420Z,0.80
2022-08-08T16:38:26.174Z,0.90
2022-08-08T16:40:01.164Z,1.30
2022-08-08T16:40:56.901Z,0.90
2022-08-08T16:42:03.184Z,1.25
2022-08-08T16:43:07.260Z,0.90
2022-08-08T16:44:12.810Z,0.80
2022-08-08T16:46:43.371Z,0.90
2022-08-08T16:46:46.102Z,1.00
2022-08-08T16:47:48.609Z,0.70
2022-08-08T16:48:50.980Z,1.10
2022-08-08T16:50:02.998Z,1.00
2022-08-08T16:51:05.393Z,0.82
2022-08-08T16:55:00.749Z,0.82
2022-08-08T16:55:05.812Z,1.00
2022-08-08T16:55:33.742Z,1.00